sensor_id;sensor_type;location;lat;lon;timestamp;P1;durP1;ratioP1;P2;durP2;ratioP2
8993;SDS011;4532;50.886;4.700;2023-07-31T00:01:51;11.15;;;4.35;;
8993;SDS011;4532;50.886;4.700;2023-07-31T00:04:20;10.03;;;4.50;;
8993;SDS011;4532;50.886;4.700;2023-07-31T00:06:50;10.07;;;4.43;;
8993;SDS011;4532;50.886;4.700;2023-07-31T00:09:19;8.20;;;4.22;;
8993;SDS011;4532;50.886;4.700;2023-07-31T00:11:46;12.43;;;4.60;;
8993;SDS011;4532;50.886;4.700;2023-07-31T00:14:28;9.90;;;4.07;;
8993;SDS011;4532;50.886;4.700;2023-07-31T00:16:55;10.48;;;4.43;;
8993;SDS011;4532;50.886;4.700;2023-07-31T00:19:25;9.80;;;4.00;;
8993;SDS011;4532;50.886;4.700;2023-07-31T00:21:52;6.40;;;4.10;;
8993;SDS011;4532;50.886;4.700;2023-07-31T00:24:19;11.05;;;4.20;;
8993;SDS011;4532;50.886;4.700;2023-07-31T00:26:46;10.10;;;4.60;;
8993;SDS011;4532;50.886;4.700;2023-07-31T00:29:14;10.55;;;4.53;;
8993;SDS011;4532;50.886;4.700;2023-07-31T00:31:41;12.25;;;4.05;;
8993;SDS011;4532;50.886;4.700;2023-07-31T00:34:11;9.77;;;4.60;;
8993;SDS011;4532;50.886;4.700;2023-07-31T00:36:38;9.07;;;4.65;;
8993;SDS011;4532;50.886;4.700;2023-07-31T00:39:05;9.65;;;4.70;;
8993;SDS011;4532;50.886;4.700;2023-07-31T00:41:33;9.98;;;4.47;;
8993;SDS011;4532;50.886;4.700;2023-07-31T00:44:00;9.85;;;4.35;;
8993;SDS011;4532;50.886;4.700;2023-07-31T00:46:29;7.35;;;4.28;;
8993;SDS011;4532;50.886;4.700;2023-07-31T00:48:57;10.10;;;4.25;;
8993;SDS011;4532;50.886;4.700;2023-07-31T00:51:29;8.98;;;4.35;;
8993;SDS011;4532;50.886;4.700;2023-07-31T00:53:59;11.82;;;4.60;;
8993;SDS011;4532;50.886;4.700;2023-07-31T00:56:27;10.85;;;4.57;;
8993;SDS011;4532;50.886;4.700;2023-07-31T00:58:57;9.85;;;4.95;;
8993;SDS011;4532;50.886;4.700;2023-07-31T01:01:27;7.95;;;4.53;;
8993;SDS011;4532;50.886;4.700;2023-07-31T01:03:54;11.80;;;4.50;;
8993;SDS011;4532;50.886;4.700;2023-07-31T01:06:31;11.57;;;4.38;;
8993;SDS011;4532;50.886;4.700;2023-07-31T01:11:41;10.63;;;4.18;;
8993;SDS011;4532;50.886;4.700;2023-07-31T01:14:13;8.65;;;4.22;;
8993;SDS011;4532;50.886;4.700;2023-07-31T01:16:43;10.07;;;4.22;;
8993;SDS011;4532;50.886;4.700;2023-07-31T01:19:10;10.02;;;4.25;;
8993;SDS011;4532;50.886;4.700;2023-07-31T01:24:41;9.68;;;4.25;;
8993;SDS011;4532;50.886;4.700;2023-07-31T01:27:21;10.55;;;4.85;;
8993;SDS011;4532;50.886;4.700;2023-07-31T01:29:59;8.98;;;4.10;;
8993;SDS011;4532;50.886;4.700;2023-07-31T01:32:38;9.25;;;4.32;;
8993;SDS011;4532;50.886;4.700;2023-07-31T01:35:08;9.30;;;4.47;;
8993;SDS011;4532;50.886;4.700;2023-07-31T01:37:36;8.93;;;4.18;;
8993;SDS011;4532;50.886;4.700;2023-07-31T01:40:05;9.25;;;4.93;;
8993;SDS011;4532;50.886;4.700;2023-07-31T01:42:33;8.98;;;3.95;;
8993;SDS011;4532;50.886;4.700;2023-07-31T01:45:02;12.93;;;4.80;;
8993;SDS011;4532;50.886;4.700;2023-07-31T01:47:30;10.43;;;4.47;;
8993;SDS011;4532;50.886;4.700;2023-07-31T01:49:57;8.52;;;4.07;;
8993;SDS011;4532;50.886;4.700;2023-07-31T01:52:24;8.82;;;4.35;;
8993;SDS011;4532;50.886;4.700;2023-07-31T01:54:52;7.75;;;4.30;;
8993;SDS011;4532;50.886;4.700;2023-07-31T01:57:19;9.75;;;4.40;;
8993;SDS011;4532;50.886;4.700;2023-07-31T01:59:46;6.95;;;3.88;;
8993;SDS011;4532;50.886;4.700;2023-07-31T02:02:14;7.97;;;4.22;;
8993;SDS011;4532;50.886;4.700;2023-07-31T02:04:41;7.97;;;4.38;;
8993;SDS011;4532;50.886;4.700;2023-07-31T02:07:10;9.07;;;4.40;;
8993;SDS011;4532;50.886;4.700;2023-07-31T02:09:37;8.18;;;4.30;;
8993;SDS011;4532;50.886;4.700;2023-07-31T02:12:05;6.95;;;4.45;;
8993;SDS011;4532;50.886;4.700;2023-07-31T02:14:34;10.75;;;4.82;;
8993;SDS011;4532;50.886;4.700;2023-07-31T02:17:04;7.13;;;4.25;;
8993;SDS011;4532;50.886;4.700;2023-07-31T02:19:32;9.68;;;4.25;;
8993;SDS011;4532;50.886;4.700;2023-07-31T02:21:59;9.48;;;4.55;;
8993;SDS011;4532;50.886;4.700;2023-07-31T02:24:26;7.78;;;4.53;;
8993;SDS011;4532;50.886;4.700;2023-07-31T02:26:54;7.40;;;4.13;;
8993;SDS011;4532;50.886;4.700;2023-07-31T02:29:24;9.35;;;4.63;;
8993;SDS011;4532;50.886;4.700;2023-07-31T02:31:51;7.32;;;4.22;;
8993;SDS011;4532;50.886;4.700;2023-07-31T02:34:22;9.68;;;5.22;;
8993;SDS011;4532;50.886;4.700;2023-07-31T02:36:50;11.52;;;4.50;;
8993;SDS011;4532;50.886;4.700;2023-07-31T02:39:17;10.23;;;4.72;;
8993;SDS011;4532;50.886;4.700;2023-07-31T02:41:44;9.30;;;5.05;;
8993;SDS011;4532;50.886;4.700;2023-07-31T02:44:12;11.02;;;4.72;;
8993;SDS011;4532;50.886;4.700;2023-07-31T02:46:41;8.20;;;4.60;;
8993;SDS011;4532;50.886;4.700;2023-07-31T02:49:08;7.47;;;4.40;;
8993;SDS011;4532;50.886;4.700;2023-07-31T02:51:36;7.65;;;4.85;;
8993;SDS011;4532;50.886;4.700;2023-07-31T02:54:03;6.68;;;4.53;;
8993;SDS011;4532;50.886;4.700;2023-07-31T02:56:30;8.48;;;4.78;;
8993;SDS011;4532;50.886;4.700;2023-07-31T02:59:00;7.70;;;4.38;;
8993;SDS011;4532;50.886;4.700;2023-07-31T03:01:27;6.95;;;4.03;;
8993;SDS011;4532;50.886;4.700;2023-07-31T03:03:54;7.57;;;4.13;;
8993;SDS011;4532;50.886;4.700;2023-07-31T03:06:23;7.85;;;4.30;;
8993;SDS011;4532;50.886;4.700;2023-07-31T03:08:51;7.35;;;3.83;;
8993;SDS011;4532;50.886;4.700;2023-07-31T03:11:20;8.05;;;3.97;;
8993;SDS011;4532;50.886;4.700;2023-07-31T03:13:47;5.60;;;3.65;;
8993;SDS011;4532;50.886;4.700;2023-07-31T03:16:17;6.90;;;4.50;;
8993;SDS011;4532;50.886;4.700;2023-07-31T03:18:44;9.40;;;4.13;;
8993;SDS011;4532;50.886;4.700;2023-07-31T03:21:12;6.63;;;4.20;;
8993;SDS011;4532;50.886;4.700;2023-07-31T03:23:41;8.05;;;3.70;;
8993;SDS011;4532;50.886;4.700;2023-07-31T03:26:10;5.97;;;4.32;;
8993;SDS011;4532;50.886;4.700;2023-07-31T03:28:40;7.25;;;4.25;;
8993;SDS011;4532;50.886;4.700;2023-07-31T03:31:07;4.93;;;3.80;;
8993;SDS011;4532;50.886;4.700;2023-07-31T03:33:35;8.15;;;3.60;;
8993;SDS011;4532;50.886;4.700;2023-07-31T03:36:02;6.05;;;3.70;;
8993;SDS011;4532;50.886;4.700;2023-07-31T03:38:30;5.82;;;3.80;;
8993;SDS011;4532;50.886;4.700;2023-07-31T03:40:57;8.95;;;4.15;;
8993;SDS011;4532;50.886;4.700;2023-07-31T03:43:28;7.78;;;3.95;;
8993;SDS011;4532;50.886;4.700;2023-07-31T03:45:55;6.72;;;4.15;;
8993;SDS011;4532;50.886;4.700;2023-07-31T03:48:25;5.65;;;3.45;;
8993;SDS011;4532;50.886;4.700;2023-07-31T03:50:52;8.38;;;3.88;;
8993;SDS011;4532;50.886;4.700;2023-07-31T03:53:25;6.18;;;4.07;;
8993;SDS011;4532;50.886;4.700;2023-07-31T03:55:52;5.78;;;3.80;;
8993;SDS011;4532;50.886;4.700;2023-07-31T03:58:19;7.15;;;3.65;;
8993;SDS011;4532;50.886;4.700;2023-07-31T04:00:47;5.78;;;3.70;;
8993;SDS011;4532;50.886;4.700;2023-07-31T04:03:19;7.40;;;3.55;;
8993;SDS011;4532;50.886;4.700;2023-07-31T04:05:48;6.15;;;4.22;;
8993;SDS011;4532;50.886;4.700;2023-07-31T04:08:16;6.80;;;3.63;;
8993;SDS011;4532;50.886;4.700;2023-07-31T04:10:45;5.47;;;3.65;;
8993;SDS011;4532;50.886;4.700;2023-07-31T04:13:16;6.93;;;3.72;;
8993;SDS011;4532;50.886;4.700;2023-07-31T04:15:49;5.25;;;3.70;;
8993;SDS011;4532;50.886;4.700;2023-07-31T04:18:24;6.60;;;3.92;;
8993;SDS011;4532;50.886;4.700;2023-07-31T04:20:51;5.07;;;3.50;;
8993;SDS011;4532;50.886;4.700;2023-07-31T04:23:19;5.50;;;3.63;;
8993;SDS011;4532;50.886;4.700;2023-07-31T04:25:46;5.65;;;3.58;;
8993;SDS011;4532;50.886;4.700;2023-07-31T04:28:13;7.65;;;3.35;;
8993;SDS011;4532;50.886;4.700;2023-07-31T04:30:43;5.10;;;3.72;;
8993;SDS011;4532;50.886;4.700;2023-07-31T04:33:10;5.70;;;3.33;;
8993;SDS011;4532;50.886;4.700;2023-07-31T04:35:37;3.80;;;3.28;;
8993;SDS011;4532;50.886;4.700;2023-07-31T04:38:05;7.95;;;3.53;;
8993;SDS011;4532;50.886;4.700;2023-07-31T04:40:32;5.32;;;3.60;;
8993;SDS011;4532;50.886;4.700;2023-07-31T04:42:59;5.50;;;3.47;;
8993;SDS011;4532;50.886;4.700;2023-07-31T04:45:29;8.77;;;3.45;;
8993;SDS011;4532;50.886;4.700;2023-07-31T04:47:58;7.78;;;3.55;;
8993;SDS011;4532;50.886;4.700;2023-07-31T04:50:25;5.68;;;3.50;;
8993;SDS011;4532;50.886;4.700;2023-07-31T04:52:53;6.53;;;3.90;;
8993;SDS011;4532;50.886;4.700;2023-07-31T04:55:20;6.95;;;3.53;;
8993;SDS011;4532;50.886;4.700;2023-07-31T04:57:47;5.53;;;3.40;;
8993;SDS011;4532;50.886;4.700;2023-07-31T05:00:14;4.47;;;3.15;;
8993;SDS011;4532;50.886;4.700;2023-07-31T05:02:42;6.57;;;3.38;;
8993;SDS011;4532;50.886;4.700;2023-07-31T05:05:09;5.80;;;3.83;;
8993;SDS011;4532;50.886;4.700;2023-07-31T05:07:47;4.95;;;3.50;;
8993;SDS011;4532;50.886;4.700;2023-07-31T05:10:17;5.43;;;3.33;;
8993;SDS011;4532;50.886;4.700;2023-07-31T05:12:46;5.97;;;3.80;;
8993;SDS011;4532;50.886;4.700;2023-07-31T05:15:13;6.93;;;3.35;;
8993;SDS011;4532;50.886;4.700;2023-07-31T05:17:42;4.32;;;3.20;;
8993;SDS011;4532;50.886;4.700;2023-07-31T05:20:09;5.75;;;3.70;;
8993;SDS011;4532;50.886;4.700;2023-07-31T05:22:44;4.97;;;2.95;;
8993;SDS011;4532;50.886;4.700;2023-07-31T05:25:11;5.57;;;3.50;;
8993;SDS011;4532;50.886;4.700;2023-07-31T05:27:38;5.63;;;3.30;;
8993;SDS011;4532;50.886;4.700;2023-07-31T05:30:06;5.68;;;3.20;;
8993;SDS011;4532;50.886;4.700;2023-07-31T05:32:33;5.18;;;2.85;;
8993;SDS011;4532;50.886;4.700;2023-07-31T05:35:03;5.10;;;3.33;;
8993;SDS011;4532;50.886;4.700;2023-07-31T05:37:31;5.07;;;3.10;;
8993;SDS011;4532;50.886;4.700;2023-07-31T05:39:58;4.68;;;3.28;;
8993;SDS011;4532;50.886;4.700;2023-07-31T05:42:29;5.88;;;3.22;;
8993;SDS011;4532;50.886;4.700;2023-07-31T05:45:03;8.68;;;4.13;;
8993;SDS011;4532;50.886;4.700;2023-07-31T05:47:34;8.13;;;4.03;;
8993;SDS011;4532;50.886;4.700;2023-07-31T05:50:01;5.32;;;3.65;;
8993;SDS011;4532;50.886;4.700;2023-07-31T05:52:28;5.60;;;3.63;;
8993;SDS011;4532;50.886;4.700;2023-07-31T05:54:58;6.22;;;4.05;;
8993;SDS011;4532;50.886;4.700;2023-07-31T05:57:28;6.85;;;4.15;;
8993;SDS011;4532;50.886;4.700;2023-07-31T05:59:55;5.55;;;3.22;;
8993;SDS011;4532;50.886;4.700;2023-07-31T06:02:22;6.97;;;3.40;;
8993;SDS011;4532;50.886;4.700;2023-07-31T06:04:51;6.15;;;3.58;;
8993;SDS011;4532;50.886;4.700;2023-07-31T06:07:23;6.45;;;3.72;;
8993;SDS011;4532;50.886;4.700;2023-07-31T06:09:50;8.35;;;4.28;;
8993;SDS011;4532;50.886;4.700;2023-07-31T06:12:20;6.97;;;4.13;;
8993;SDS011;4532;50.886;4.700;2023-07-31T06:14:47;5.47;;;3.35;;
8993;SDS011;4532;50.886;4.700;2023-07-31T06:17:19;6.80;;;3.35;;
8993;SDS011;4532;50.886;4.700;2023-07-31T06:19:48;5.85;;;3.65;;
8993;SDS011;4532;50.886;4.700;2023-07-31T06:22:15;5.57;;;3.47;;
8993;SDS011;4532;50.886;4.700;2023-07-31T06:24:43;5.47;;;3.20;;
8993;SDS011;4532;50.886;4.700;2023-07-31T06:27:13;6.80;;;3.30;;
8993;SDS011;4532;50.886;4.700;2023-07-31T06:29:43;7.15;;;3.97;;
8993;SDS011;4532;50.886;4.700;2023-07-31T06:32:10;5.53;;;3.15;;
8993;SDS011;4532;50.886;4.700;2023-07-31T06:34:37;4.95;;;3.28;;
8993;SDS011;4532;50.886;4.700;2023-07-31T06:37:07;5.30;;;3.15;;
8993;SDS011;4532;50.886;4.700;2023-07-31T06:39:36;8.20;;;3.80;;
8993;SDS011;4532;50.886;4.700;2023-07-31T06:42:08;7.45;;;3.70;;
8993;SDS011;4532;50.886;4.700;2023-07-31T06:44:36;6.82;;;3.58;;
8993;SDS011;4532;50.886;4.700;2023-07-31T06:47:05;6.32;;;3.95;;
8993;SDS011;4532;50.886;4.700;2023-07-31T06:49:35;5.88;;;3.75;;
8993;SDS011;4532;50.886;4.700;2023-07-31T06:52:05;5.63;;;3.70;;
8993;SDS011;4532;50.886;4.700;2023-07-31T06:54:32;6.55;;;3.75;;
8993;SDS011;4532;50.886;4.700;2023-07-31T06:56:59;5.68;;;3.40;;
8993;SDS011;4532;50.886;4.700;2023-07-31T06:59:27;5.88;;;3.38;;
8993;SDS011;4532;50.886;4.700;2023-07-31T07:01:54;6.15;;;3.20;;
8993;SDS011;4532;50.886;4.700;2023-07-31T07:04:24;5.40;;;3.58;;
8993;SDS011;4532;50.886;4.700;2023-07-31T07:06:53;5.63;;;2.90;;
8993;SDS011;4532;50.886;4.700;2023-07-31T07:09:20;4.28;;;3.08;;
8993;SDS011;4532;50.886;4.700;2023-07-31T07:11:47;4.35;;;3.13;;
8993;SDS011;4532;50.886;4.700;2023-07-31T07:14:17;7.28;;;3.30;;
8993;SDS011;4532;50.886;4.700;2023-07-31T07:16:47;4.95;;;3.20;;
8993;SDS011;4532;50.886;4.700;2023-07-31T07:19:18;7.18;;;3.50;;
8993;SDS011;4532;50.886;4.700;2023-07-31T07:21:45;6.10;;;3.33;;
8993;SDS011;4532;50.886;4.700;2023-07-31T07:24:14;7.68;;;3.42;;
8993;SDS011;4532;50.886;4.700;2023-07-31T07:26:44;6.03;;;3.45;;
8993;SDS011;4532;50.886;4.700;2023-07-31T07:29:16;6.75;;;4.05;;
8993;SDS011;4532;50.886;4.700;2023-07-31T07:31:43;5.15;;;3.25;;
8993;SDS011;4532;50.886;4.700;2023-07-31T07:34:12;5.07;;;3.40;;
8993;SDS011;4532;50.886;4.700;2023-07-31T07:36:40;5.38;;;3.50;;
8993;SDS011;4532;50.886;4.700;2023-07-31T07:39:16;7.28;;;3.50;;
8993;SDS011;4532;50.886;4.700;2023-07-31T07:41:43;5.88;;;3.58;;
8993;SDS011;4532;50.886;4.700;2023-07-31T07:44:10;6.45;;;3.55;;
8993;SDS011;4532;50.886;4.700;2023-07-31T07:46:38;5.57;;;3.20;;
8993;SDS011;4532;50.886;4.700;2023-07-31T07:49:07;7.85;;;3.00;;
8993;SDS011;4532;50.886;4.700;2023-07-31T07:51:37;5.18;;;3.28;;
8993;SDS011;4532;50.886;4.700;2023-07-31T07:54:05;7.80;;;3.13;;
8993;SDS011;4532;50.886;4.700;2023-07-31T07:56:32;6.45;;;3.28;;
8993;SDS011;4532;50.886;4.700;2023-07-31T07:59:03;5.40;;;3.30;;
8993;SDS011;4532;50.886;4.700;2023-07-31T08:01:33;6.63;;;3.80;;
8993;SDS011;4532;50.886;4.700;2023-07-31T08:04:00;4.53;;;3.38;;
8993;SDS011;4532;50.886;4.700;2023-07-31T08:06:27;7.88;;;3.50;;
8993;SDS011;4532;50.886;4.700;2023-07-31T08:08:57;5.60;;;3.10;;
8993;SDS011;4532;50.886;4.700;2023-07-31T08:11:24;5.90;;;3.10;;
8993;SDS011;4532;50.886;4.700;2023-07-31T08:13:56;5.88;;;3.40;;
8993;SDS011;4532;50.886;4.700;2023-07-31T08:16:24;6.70;;;3.00;;
8993;SDS011;4532;50.886;4.700;2023-07-31T08:18:51;4.85;;;3.10;;
8993;SDS011;4532;50.886;4.700;2023-07-31T08:21:21;6.18;;;3.03;;
8993;SDS011;4532;50.886;4.700;2023-07-31T08:23:48;6.38;;;2.95;;
8993;SDS011;4532;50.886;4.700;2023-07-31T08:26:18;5.15;;;2.88;;
8993;SDS011;4532;50.886;4.700;2023-07-31T08:28:45;5.45;;;3.35;;
8993;SDS011;4532;50.886;4.700;2023-07-31T08:31:13;8.25;;;3.08;;
8993;SDS011;4532;50.886;4.700;2023-07-31T08:33:40;4.80;;;2.67;;
8993;SDS011;4532;50.886;4.700;2023-07-31T08:36:08;7.95;;;2.92;;
8993;SDS011;4532;50.886;4.700;2023-07-31T08:38:39;4.07;;;2.67;;
8993;SDS011;4532;50.886;4.700;2023-07-31T08:41:07;6.75;;;2.78;;
8993;SDS011;4532;50.886;4.700;2023-07-31T08:43:34;5.30;;;2.60;;
8993;SDS011;4532;50.886;4.700;2023-07-31T08:46:04;5.18;;;2.80;;
8993;SDS011;4532;50.886;4.700;2023-07-31T08:48:34;4.18;;;2.85;;
8993;SDS011;4532;50.886;4.700;2023-07-31T08:51:04;5.18;;;3.00;;
8993;SDS011;4532;50.886;4.700;2023-07-31T08:53:33;4.95;;;3.00;;
8993;SDS011;4532;50.886;4.700;2023-07-31T08:56:01;5.15;;;2.65;;
8993;SDS011;4532;50.886;4.700;2023-07-31T08:58:32;4.10;;;2.33;;
8993;SDS011;4532;50.886;4.700;2023-07-31T09:01:00;5.07;;;3.08;;
8993;SDS011;4532;50.886;4.700;2023-07-31T09:03:33;4.10;;;2.53;;
8993;SDS011;4532;50.886;4.700;2023-07-31T09:06:02;4.97;;;2.55;;
8993;SDS011;4532;50.886;4.700;2023-07-31T09:08:35;4.53;;;2.40;;
8993;SDS011;4532;50.886;4.700;2023-07-31T09:11:07;3.95;;;2.65;;
8993;SDS011;4532;50.886;4.700;2023-07-31T09:13:34;4.78;;;2.88;;
8993;SDS011;4532;50.886;4.700;2023-07-31T09:16:04;5.03;;;2.60;;
8993;SDS011;4532;50.886;4.700;2023-07-31T09:18:45;4.20;;;2.42;;
8993;SDS011;4532;50.886;4.700;2023-07-31T09:21:21;2.50;;;2.30;;
8993;SDS011;4532;50.886;4.700;2023-07-31T09:23:50;6.93;;;2.67;;
8993;SDS011;4532;50.886;4.700;2023-07-31T09:26:34;3.47;;;2.50;;
8993;SDS011;4532;50.886;4.700;2023-07-31T09:29:07;4.20;;;2.53;;
8993;SDS011;4532;50.886;4.700;2023-07-31T09:31:52;3.92;;;2.47;;
8993;SDS011;4532;50.886;4.700;2023-07-31T09:34:29;4.70;;;2.88;;
8993;SDS011;4532;50.886;4.700;2023-07-31T09:37:05;5.65;;;3.10;;
8993;SDS011;4532;50.886;4.700;2023-07-31T09:39:45;6.03;;;2.67;;
8993;SDS011;4532;50.886;4.700;2023-07-31T09:42:13;3.45;;;2.50;;
8993;SDS011;4532;50.886;4.700;2023-07-31T09:44:43;6.55;;;2.70;;
8993;SDS011;4532;50.886;4.700;2023-07-31T09:47:23;6.07;;;3.13;;
8993;SDS011;4532;50.886;4.700;2023-07-31T09:49:52;3.38;;;2.75;;
8993;SDS011;4532;50.886;4.700;2023-07-31T09:52:19;5.00;;;3.22;;
8993;SDS011;4532;50.886;4.700;2023-07-31T09:54:46;4.75;;;2.80;;
8993;SDS011;4532;50.886;4.700;2023-07-31T09:57:14;4.10;;;2.80;;
8993;SDS011;4532;50.886;4.700;2023-07-31T09:59:47;6.90;;;3.20;;
8993;SDS011;4532;50.886;4.700;2023-07-31T10:02:19;6.82;;;3.15;;
8993;SDS011;4532;50.886;4.700;2023-07-31T10:04:50;5.82;;;3.28;;
8993;SDS011;4532;50.886;4.700;2023-07-31T10:07:23;5.65;;;3.20;;
8993;SDS011;4532;50.886;4.700;2023-07-31T10:09:53;5.13;;;3.22;;
8993;SDS011;4532;50.886;4.700;2023-07-31T10:12:24;5.03;;;3.05;;
8993;SDS011;4532;50.886;4.700;2023-07-31T10:14:56;4.90;;;3.17;;
8993;SDS011;4532;50.886;4.700;2023-07-31T10:17:26;5.65;;;3.50;;
8993;SDS011;4532;50.886;4.700;2023-07-31T10:19:54;6.85;;;3.85;;
8993;SDS011;4532;50.886;4.700;2023-07-31T10:22:25;5.90;;;3.65;;
8993;SDS011;4532;50.886;4.700;2023-07-31T10:24:54;5.18;;;3.83;;
8993;SDS011;4532;50.886;4.700;2023-07-31T10:27:26;7.78;;;4.10;;
8993;SDS011;4532;50.886;4.700;2023-07-31T10:29:57;5.70;;;3.67;;
8993;SDS011;4532;50.886;4.700;2023-07-31T10:32:27;6.82;;;4.00;;
8993;SDS011;4532;50.886;4.700;2023-07-31T10:34:57;6.72;;;3.80;;
8993;SDS011;4532;50.886;4.700;2023-07-31T10:37:29;9.60;;;4.00;;
8993;SDS011;4532;50.886;4.700;2023-07-31T10:40:13;5.03;;;3.75;;
8993;SDS011;4532;50.886;4.700;2023-07-31T10:45:37;5.65;;;3.70;;
8993;SDS011;4532;50.886;4.700;2023-07-31T10:48:06;6.78;;;3.78;;
8993;SDS011;4532;50.886;4.700;2023-07-31T10:53:26;7.20;;;4.47;;
8993;SDS011;4532;50.886;4.700;2023-07-31T10:55:58;6.18;;;3.97;;
8993;SDS011;4532;50.886;4.700;2023-07-31T10:58:33;8.13;;;4.75;;
8993;SDS011;4532;50.886;4.700;2023-07-31T11:01:02;6.72;;;3.97;;
8993;SDS011;4532;50.886;4.700;2023-07-31T11:03:48;7.60;;;4.32;;
8993;SDS011;4532;50.886;4.700;2023-07-31T11:06:20;7.07;;;4.53;;
8993;SDS011;4532;50.886;4.700;2023-07-31T11:08:48;8.00;;;4.50;;
8993;SDS011;4532;50.886;4.700;2023-07-31T11:11:18;8.45;;;4.78;;
8993;SDS011;4532;50.886;4.700;2023-07-31T11:16:19;7.95;;;4.50;;
8993;SDS011;4532;50.886;4.700;2023-07-31T11:18:59;7.68;;;4.20;;
8993;SDS011;4532;50.886;4.700;2023-07-31T11:21:31;6.13;;;4.22;;
8993;SDS011;4532;50.886;4.700;2023-07-31T11:23:58;6.85;;;3.92;;
8993;SDS011;4532;50.886;4.700;2023-07-31T11:26:26;6.32;;;4.50;;
8993;SDS011;4532;50.886;4.700;2023-07-31T11:28:56;8.18;;;4.57;;
8993;SDS011;4532;50.886;4.700;2023-07-31T11:31:24;9.13;;;4.15;;
8993;SDS011;4532;50.886;4.700;2023-07-31T11:34:06;7.80;;;4.78;;
8993;SDS011;4532;50.886;4.700;2023-07-31T11:36:34;7.68;;;4.28;;
8993;SDS011;4532;50.886;4.700;2023-07-31T11:39:04;8.32;;;4.38;;
8993;SDS011;4532;50.886;4.700;2023-07-31T11:41:33;6.93;;;4.40;;
8993;SDS011;4532;50.886;4.700;2023-07-31T11:44:00;9.63;;;4.45;;
8993;SDS011;4532;50.886;4.700;2023-07-31T11:46:47;10.93;;;4.95;;
8993;SDS011;4532;50.886;4.700;2023-07-31T11:49:14;8.00;;;4.65;;
8993;SDS011;4532;50.886;4.700;2023-07-31T11:51:48;7.05;;;4.28;;
8993;SDS011;4532;50.886;4.700;2023-07-31T11:54:17;9.10;;;4.70;;
8993;SDS011;4532;50.886;4.700;2023-07-31T11:56:45;10.13;;;4.30;;
8993;SDS011;4532;50.886;4.700;2023-07-31T11:59:16;8.13;;;4.45;;
8993;SDS011;4532;50.886;4.700;2023-07-31T12:01:46;6.50;;;4.05;;
8993;SDS011;4532;50.886;4.700;2023-07-31T12:04:18;7.50;;;4.53;;
8993;SDS011;4532;50.886;4.700;2023-07-31T12:06:46;7.05;;;4.47;;
8993;SDS011;4532;50.886;4.700;2023-07-31T12:09:15;6.35;;;4.28;;
8993;SDS011;4532;50.886;4.700;2023-07-31T12:11:43;6.65;;;4.30;;
8993;SDS011;4532;50.886;4.700;2023-07-31T12:16:52;8.98;;;4.30;;
8993;SDS011;4532;50.886;4.700;2023-07-31T12:19:25;9.00;;;4.40;;
8993;SDS011;4532;50.886;4.700;2023-07-31T12:21:56;7.95;;;3.85;;
8993;SDS011;4532;50.886;4.700;2023-07-31T12:24:26;9.38;;;4.25;;
8993;SDS011;4532;50.886;4.700;2023-07-31T12:26:53;8.52;;;4.35;;
8993;SDS011;4532;50.886;4.700;2023-07-31T12:29:23;7.20;;;4.13;;
8993;SDS011;4532;50.886;4.700;2023-07-31T12:31:50;7.57;;;4.10;;
8993;SDS011;4532;50.886;4.700;2023-07-31T12:34:18;7.03;;;4.15;;
8993;SDS011;4532;50.886;4.700;2023-07-31T12:36:50;12.73;;;4.57;;
8993;SDS011;4532;50.886;4.700;2023-07-31T12:39:20;9.05;;;4.57;;
8993;SDS011;4532;50.886;4.700;2023-07-31T12:41:52;6.68;;;4.32;;
8993;SDS011;4532;50.886;4.700;2023-07-31T12:44:19;9.10;;;4.65;;
8993;SDS011;4532;50.886;4.700;2023-07-31T12:46:46;7.88;;;4.72;;
8993;SDS011;4532;50.886;4.700;2023-07-31T12:49:13;9.77;;;4.15;;
8993;SDS011;4532;50.886;4.700;2023-07-31T12:51:41;7.78;;;4.20;;
8993;SDS011;4532;50.886;4.700;2023-07-31T12:54:08;6.13;;;4.68;;
8993;SDS011;4532;50.886;4.700;2023-07-31T12:56:37;9.85;;;4.80;;
8993;SDS011;4532;50.886;4.700;2023-07-31T12:59:05;6.88;;;4.60;;
8993;SDS011;4532;50.886;4.700;2023-07-31T13:01:32;6.97;;;4.45;;
8993;SDS011;4532;50.886;4.700;2023-07-31T13:03:59;9.93;;;5.15;;
8993;SDS011;4532;50.886;4.700;2023-07-31T13:06:29;9.15;;;4.63;;
8993;SDS011;4532;50.886;4.700;2023-07-31T13:08:56;7.70;;;4.50;;
8993;SDS011;4532;50.886;4.700;2023-07-31T13:11:26;8.35;;;4.82;;
8993;SDS011;4532;50.886;4.700;2023-07-31T13:13:53;11.13;;;4.70;;
8993;SDS011;4532;50.886;4.700;2023-07-31T13:16:20;8.82;;;4.90;;
8993;SDS011;4532;50.886;4.700;2023-07-31T13:18:47;9.63;;;4.75;;
8993;SDS011;4532;50.886;4.700;2023-07-31T13:21:14;9.27;;;4.40;;
8993;SDS011;4532;50.886;4.700;2023-07-31T13:23:42;7.65;;;4.32;;
8993;SDS011;4532;50.886;4.700;2023-07-31T13:26:14;7.82;;;4.70;;
8993;SDS011;4532;50.886;4.700;2023-07-31T13:28:41;8.15;;;4.32;;
8993;SDS011;4532;50.886;4.700;2023-07-31T13:31:08;5.97;;;4.05;;
8993;SDS011;4532;50.886;4.700;2023-07-31T13:33:38;6.25;;;3.83;;
8993;SDS011;4532;50.886;4.700;2023-07-31T13:36:11;7.32;;;3.95;;
8993;SDS011;4532;50.886;4.700;2023-07-31T13:38:40;5.55;;;3.55;;
8993;SDS011;4532;50.886;4.700;2023-07-31T13:41:08;7.22;;;3.88;;
8993;SDS011;4532;50.886;4.700;2023-07-31T13:43:35;7.90;;;3.50;;
8993;SDS011;4532;50.886;4.700;2023-07-31T13:46:03;6.28;;;3.85;;
8993;SDS011;4532;50.886;4.700;2023-07-31T13:48:34;7.80;;;3.85;;
8993;SDS011;4532;50.886;4.700;2023-07-31T13:51:04;7.25;;;3.85;;
8993;SDS011;4532;50.886;4.700;2023-07-31T13:53:36;6.40;;;3.58;;
8993;SDS011;4532;50.886;4.700;2023-07-31T13:56:04;5.88;;;3.53;;
8993;SDS011;4532;50.886;4.700;2023-07-31T13:58:32;5.82;;;3.25;;
8993;SDS011;4532;50.886;4.700;2023-07-31T14:01:01;6.38;;;3.03;;
8993;SDS011;4532;50.886;4.700;2023-07-31T14:03:33;4.95;;;2.63;;
8993;SDS011;4532;50.886;4.700;2023-07-31T14:06:01;3.17;;;2.40;;
8993;SDS011;4532;50.886;4.700;2023-07-31T14:08:39;2.75;;;2.00;;
8993;SDS011;4532;50.886;4.700;2023-07-31T14:11:11;4.28;;;2.50;;
8993;SDS011;4532;50.886;4.700;2023-07-31T14:13:38;5.55;;;2.20;;
8993;SDS011;4532;50.886;4.700;2023-07-31T14:16:07;4.00;;;2.55;;
8993;SDS011;4532;50.886;4.700;2023-07-31T14:18:35;5.93;;;2.50;;
8993;SDS011;4532;50.886;4.700;2023-07-31T14:21:05;3.50;;;2.28;;
8993;SDS011;4532;50.886;4.700;2023-07-31T14:23:34;4.18;;;2.35;;
8993;SDS011;4532;50.886;4.700;2023-07-31T14:26:06;5.72;;;2.75;;
8993;SDS011;4532;50.886;4.700;2023-07-31T14:28:36;4.22;;;2.47;;
8993;SDS011;4532;50.886;4.700;2023-07-31T14:31:03;4.00;;;2.42;;
8993;SDS011;4532;50.886;4.700;2023-07-31T14:33:30;4.65;;;2.75;;
8993;SDS011;4532;50.886;4.700;2023-07-31T14:35:57;3.88;;;2.60;;
8993;SDS011;4532;50.886;4.700;2023-07-31T14:38:25;5.43;;;2.17;;
8993;SDS011;4532;50.886;4.700;2023-07-31T14:40:52;5.10;;;2.35;;
8993;SDS011;4532;50.886;4.700;2023-07-31T14:43:28;3.50;;;2.50;;
8993;SDS011;4532;50.886;4.700;2023-07-31T14:45:58;3.00;;;2.10;;
8993;SDS011;4532;50.886;4.700;2023-07-31T14:48:26;3.10;;;2.20;;
8993;SDS011;4532;50.886;4.700;2023-07-31T14:50:54;4.95;;;2.70;;
8993;SDS011;4532;50.886;4.700;2023-07-31T14:53:24;5.60;;;2.80;;
8993;SDS011;4532;50.886;4.700;2023-07-31T14:55:53;4.40;;;2.47;;
8993;SDS011;4532;50.886;4.700;2023-07-31T14:58:23;4.82;;;2.60;;
8993;SDS011;4532;50.886;4.700;2023-07-31T15:00:51;4.30;;;2.42;;
8993;SDS011;4532;50.886;4.700;2023-07-31T15:03:23;3.90;;;2.45;;
8993;SDS011;4532;50.886;4.700;2023-07-31T15:05:51;3.10;;;2.20;;
8993;SDS011;4532;50.886;4.700;2023-07-31T15:08:19;5.05;;;2.28;;
8993;SDS011;4532;50.886;4.700;2023-07-31T15:10:46;2.78;;;2.20;;
8993;SDS011;4532;50.886;4.700;2023-07-31T15:13:13;3.33;;;2.30;;
8993;SDS011;4532;50.886;4.700;2023-07-31T15:15:41;3.63;;;2.13;;
8993;SDS011;4532;50.886;4.700;2023-07-31T15:18:14;2.97;;;1.83;;
8993;SDS011;4532;50.886;4.700;2023-07-31T15:20:41;2.80;;;2.10;;
8993;SDS011;4532;50.886;4.700;2023-07-31T15:23:08;1.98;;;1.65;;
8993;SDS011;4532;50.886;4.700;2023-07-31T15:25:36;4.03;;;1.70;;
8993;SDS011;4532;50.886;4.700;2023-07-31T15:28:03;2.33;;;1.63;;
8993;SDS011;4532;50.886;4.700;2023-07-31T15:30:31;2.97;;;1.60;;
8993;SDS011;4532;50.886;4.700;2023-07-31T15:33:01;2.50;;;1.48;;
8993;SDS011;4532;50.886;4.700;2023-07-31T15:35:29;2.53;;;1.50;;
8993;SDS011;4532;50.886;4.700;2023-07-31T15:37:56;1.50;;;1.40;;
8993;SDS011;4532;50.886;4.700;2023-07-31T15:40:25;1.55;;;1.35;;
8993;SDS011;4532;50.886;4.700;2023-07-31T15:42:55;1.50;;;1.20;;
8993;SDS011;4532;50.886;4.700;2023-07-31T15:45:22;1.67;;;1.15;;